sensor_id;sensor_type;location;lat;lon;timestamp;pressure;altitude;pressure_sealevel;temperature;humidity
81372;BME280;70827;52.206;5.294;2024-02-21T00:01:48;102024.94;;;8.61;86.67
81372;BME280;70827;52.206;5.294;2024-02-21T00:04:13;102011.91;;;8.55;86.98
81372;BME280;70827;52.206;5.294;2024-02-21T00:06:39;102008.44;;;8.53;87.12
81372;BME280;70827;52.206;5.294;2024-02-21T00:09:05;101996.44;;;8.57;87.00
81372;BME280;70827;52.206;5.294;2024-02-21T00:11:30;102010.16;;;8.54;87.02
81372;BME280;70827;52.206;5.294;2024-02-21T00:13:56;102010.16;;;8.53;87.31
81372;BME280;70827;52.206;5.294;2024-02-21T00:16:21;102018.75;;;8.52;87.16
81372;BME280;70827;52.206;5.294;2024-02-21T00:18:50;102013.66;;;8.56;87.13
81372;BME280;70827;52.206;5.294;2024-02-21T00:21:15;102012.75;;;8.53;87.27
81372;BME280;70827;52.206;5.294;2024-02-21T00:23:41;102005.06;;;8.57;87.34
81372;BME280;70827;52.206;5.294;2024-02-21T00:26:06;102011.03;;;8.55;87.45
81372;BME280;70827;52.206;5.294;2024-02-21T00:28:32;102012.81;;;8.57;87.14
81372;BME280;70827;52.206;5.294;2024-02-21T00:30:58;101994.53;;;8.42;87.20
81372;BME280;70827;52.206;5.294;2024-02-21T00:33:23;102015.34;;;8.56;87.28
81372;BME280;70827;52.206;5.294;2024-02-21T00:35:51;102012.75;;;8.53;87.73
81372;BME280;70827;52.206;5.294;2024-02-21T00:38:17;102001.53;;;8.51;87.52
81372;BME280;70827;52.206;5.294;2024-02-21T00:40:42;102014.44;;;8.51;87.78
81372;BME280;70827;52.206;5.294;2024-02-21T00:43:08;102021.38;;;8.55;87.87
81372;BME280;70827;52.206;5.294;2024-02-21T00:45:34;102012.00;;;8.60;87.72
81372;BME280;70827;52.206;5.294;2024-02-21T00:47:59;102022.28;;;8.57;87.99
81372;BME280;70827;52.206;5.294;2024-02-21T00:50:25;102012.00;;;8.60;88.02
81372;BME280;70827;52.206;5.294;2024-02-21T00:52:53;102013.72;;;8.61;87.70
81372;BME280;70827;52.206;5.294;2024-02-21T00:55:19;102016.28;;;8.58;87.91
81372;BME280;70827;52.206;5.294;2024-02-21T00:57:44;102017.94;;;8.54;87.68
81372;BME280;70827;52.206;5.294;2024-02-21T01:00:11;102000.69;;;8.55;88.20
81372;BME280;70827;52.206;5.294;2024-02-21T01:02:37;102021.41;;;8.56;87.96
81372;BME280;70827;52.206;5.294;2024-02-21T01:05:03;102006.72;;;8.54;87.92
81372;BME280;70827;52.206;5.294;2024-02-21T01:07:29;101999.81;;;8.51;87.87
81372;BME280;70827;52.206;5.294;2024-02-21T01:09:57;102010.28;;;8.62;87.84
81372;BME280;70827;52.206;5.294;2024-02-21T01:12:23;102001.53;;;8.52;88.10
81372;BME280;70827;52.206;5.294;2024-02-21T01:14:48;101991.13;;;8.44;88.30
81372;BME280;70827;52.206;5.294;2024-02-21T01:17:14;102001.63;;;8.58;88.27
81372;BME280;70827;52.206;5.294;2024-02-21T01:19:40;102005.00;;;8.54;88.02
81372;BME280;70827;52.206;5.294;2024-02-21T01:22:05;101999.84;;;8.56;88.05
81372;BME280;70827;52.206;5.294;2024-02-21T01:24:31;102001.56;;;8.55;88.36
81372;BME280;70827;52.206;5.294;2024-02-21T01:26:59;101986.03;;;8.52;88.30
81372;BME280;70827;52.206;5.294;2024-02-21T01:29:25;101978.28;;;8.54;88.24
81372;BME280;70827;52.206;5.294;2024-02-21T01:31:50;101974.94;;;8.58;88.09
81372;BME280;70827;52.206;5.294;2024-02-21T01:34:16;101968.81;;;8.54;88.15
81372;BME280;70827;52.206;5.294;2024-02-21T01:36:41;101969.75;;;8.58;88.17
81372;BME280;70827;52.206;5.294;2024-02-21T01:39:07;101960.28;;;8.57;88.12
81372;BME280;70827;52.206;5.294;2024-02-21T01:41:33;101965.50;;;8.63;87.92
81372;BME280;70827;52.206;5.294;2024-02-21T01:44:01;101957.72;;;8.60;88.02
81372;BME280;70827;52.206;5.294;2024-02-21T01:46:26;101956.84;;;8.59;88.13
81372;BME280;70827;52.206;5.294;2024-02-21T01:48:52;101955.03;;;8.54;88.07
81372;BME280;70827;52.206;5.294;2024-02-21T01:51:18;101932.81;;;8.68;87.77
81372;BME280;70827;52.206;5.294;2024-02-21T01:53:44;101920.59;;;8.56;87.99
81372;BME280;70827;52.206;5.294;2024-02-21T01:56:10;101935.34;;;8.63;87.67
81372;BME280;70827;52.206;5.294;2024-02-21T01:58:37;101945.66;;;8.60;87.68
81372;BME280;70827;52.206;5.294;2024-02-21T02:01:06;101940.50;;;8.62;87.89
81372;BME280;70827;52.206;5.294;2024-02-21T02:03:31;101937.13;;;8.67;87.74
81372;BME280;70827;52.206;5.294;2024-02-21T02:05:57;101927.63;;;8.68;87.61
81372;BME280;70827;52.206;5.294;2024-02-21T02:08:23;101931.91;;;8.64;87.55
81372;BME280;70827;52.206;5.294;2024-02-21T02:10:48;101928.50;;;8.67;87.17
81372;BME280;70827;52.206;5.294;2024-02-21T02:13:14;101916.38;;;8.60;87.39
81372;BME280;70827;52.206;5.294;2024-02-21T02:15:40;101913.13;;;8.78;87.07
81372;BME280;70827;52.206;5.294;2024-02-21T02:18:09;101913.88;;;8.70;87.16
81372;BME280;70827;52.206;5.294;2024-02-21T02:20:35;101906.97;;;8.68;87.16
81372;BME280;70827;52.206;5.294;2024-02-21T02:23:01;101908.69;;;8.67;87.17
81372;BME280;70827;52.206;5.294;2024-02-21T02:25:31;101913.13;;;8.78;86.89
81372;BME280;70827;52.206;5.294;2024-02-21T02:27:57;101909.53;;;8.68;86.74
81372;BME280;70827;52.206;5.294;2024-02-21T02:30:22;101917.38;;;8.74;86.83
81372;BME280;70827;52.206;5.294;2024-02-21T02:32:48;101914.72;;;8.68;86.95
81372;BME280;70827;52.206;5.294;2024-02-21T02:35:14;101916.47;;;8.72;87.08
81372;BME280;70827;52.206;5.294;2024-02-21T02:37:39;101900.97;;;8.70;86.91
81372;BME280;70827;52.206;5.294;2024-02-21T02:40:06;101907.91;;;8.74;86.92
81372;BME280;70827;52.206;5.294;2024-02-21T02:42:35;101894.13;;;8.76;86.68
81372;BME280;70827;52.206;5.294;2024-02-21T02:45:00;101902.69;;;8.71;86.76
81372;BME280;70827;52.206;5.294;2024-02-21T02:47:26;101895.78;;;8.72;86.83
81372;BME280;70827;52.206;5.294;2024-02-21T02:49:52;101896.72;;;8.74;86.78
81372;BME280;70827;52.206;5.294;2024-02-21T02:52:17;101893.28;;;8.75;87.02
81372;BME280;70827;52.206;5.294;2024-02-21T02:54:43;101883.78;;;8.76;86.70
81372;BME280;70827;52.206;5.294;2024-02-21T02:57:09;101880.28;;;8.72;86.83
81372;BME280;70827;52.206;5.294;2024-02-21T02:59:37;101877.69;;;8.72;86.87
81372;BME280;70827;52.206;5.294;2024-02-21T03:02:02;101874.25;;;8.73;87.11
81372;BME280;70827;52.206;5.294;2024-02-21T03:04:28;101873.34;;;8.68;87.07
81372;BME280;70827;52.206;5.294;2024-02-21T03:06:54;101879.41;;;8.71;87.18
81372;BME280;70827;52.206;5.294;2024-02-21T03:09:19;101864.75;;;8.70;87.19
81372;BME280;70827;52.206;5.294;2024-02-21T03:11:45;101869.06;;;8.68;87.24
81372;BME280;70827;52.206;5.294;2024-02-21T03:14:11;101857.81;;;8.65;87.29
81372;BME280;70827;52.206;5.294;2024-02-21T03:16:39;101856.91;;;8.60;87.45
81372;BME280;70827;52.206;5.294;2024-02-21T03:19:04;101860.41;;;8.63;87.70
81372;BME280;70827;52.206;5.294;2024-02-21T03:21:30;101853.47;;;8.58;87.95
81372;BME280;70827;52.206;5.294;2024-02-21T03:23:56;101848.31;;;8.59;87.73
81372;BME280;70827;52.206;5.294;2024-02-21T03:26:21;101836.16;;;8.55;87.67
81372;BME280;70827;52.206;5.294;2024-02-21T03:28:47;101833.59;;;8.55;87.70
81372;BME280;70827;52.206;5.294;2024-02-21T03:31:12;101834.56;;;8.66;87.74
81372;BME280;70827;52.206;5.294;2024-02-21T03:33:42;101829.34;;;8.60;87.62
81372;BME280;70827;52.206;5.294;2024-02-21T03:36:13;101828.53;;;8.66;87.62
81372;BME280;70827;52.206;5.294;2024-02-21T03:38:38;101818.94;;;8.56;87.75
81372;BME280;70827;52.206;5.294;2024-02-21T03:41:04;101811.16;;;8.53;87.75
81372;BME280;70827;52.206;5.294;2024-02-21T03:43:30;101810.31;;;8.52;87.83
81372;BME280;70827;52.206;5.294;2024-02-21T03:45:55;101812.09;;;8.58;88.08
81372;BME280;70827;52.206;5.294;2024-02-21T03:48:21;101806.88;;;8.53;88.20
81372;BME280;70827;52.206;5.294;2024-02-21T03:50:49;101812.03;;;8.53;88.01
81372;BME280;70827;52.206;5.294;2024-02-21T03:53:15;101815.56;;;8.58;88.18
81372;BME280;70827;52.206;5.294;2024-02-21T03:55:40;101812.91;;;8.54;88.03
81372;BME280;70827;52.206;5.294;2024-02-21T03:58:06;101812.06;;;8.56;88.10
81372;BME280;70827;52.206;5.294;2024-02-21T04:00:31;101808.59;;;8.54;88.28
81372;BME280;70827;52.206;5.294;2024-02-21T04:02:57;101811.16;;;8.51;88.08
81372;BME280;70827;52.206;5.294;2024-02-21T04:05:23;101809.47;;;8.56;88.23
81372;BME280;70827;52.206;5.294;2024-02-21T04:07:51;101797.44;;;8.57;88.12
81372;BME280;70827;52.206;5.294;2024-02-21T04:10:16;101805.22;;;8.60;88.08
81372;BME280;70827;52.206;5.294;2024-02-21T04:12:42;101816.31;;;8.48;88.16
81372;BME280;70827;52.206;5.294;2024-02-21T04:15:10;101794.78;;;8.51;88.26
81372;BME280;70827;52.206;5.294;2024-02-21T04:17:36;101783.56;;;8.49;88.01
81372;BME280;70827;52.206;5.294;2024-02-21T04:20:03;101782.75;;;8.53;88.37
81372;BME280;70827;52.206;5.294;2024-02-21T04:22:29;101790.56;;;8.57;88.26
81372;BME280;70827;52.206;5.294;2024-02-21T04:24:57;101791.31;;;8.46;88.09
81372;BME280;70827;52.206;5.294;2024-02-21T04:27:22;101781.72;;;8.37;88.38
81372;BME280;70827;52.206;5.294;2024-02-21T04:29:48;101780.81;;;8.33;88.52
81372;BME280;70827;52.206;5.294;2024-02-21T04:32:13;101786.09;;;8.41;88.25
81372;BME280;70827;52.206;5.294;2024-02-21T04:34:41;101786.03;;;8.36;88.50
81372;BME280;70827;52.206;5.294;2024-02-21T04:37:06;101795.53;;;8.39;88.21
81372;BME280;70827;52.206;5.294;2024-02-21T04:39:32;101786.09;;;8.41;88.28
81372;BME280;70827;52.206;5.294;2024-02-21T04:42:00;101780.94;;;8.42;88.06
81372;BME280;70827;52.206;5.294;2024-02-21T04:44:26;101774.91;;;8.40;88.01
81372;BME280;70827;52.206;5.294;2024-02-21T04:46:51;101759.31;;;8.36;88.15
81372;BME280;70827;52.206;5.294;2024-02-21T04:49:17;101758.56;;;8.43;88.05
81372;BME280;70827;52.206;5.294;2024-02-21T04:51:42;101751.53;;;8.33;87.81
81372;BME280;70827;52.206;5.294;2024-02-21T04:54:08;101759.31;;;8.34;87.94
81372;BME280;70827;52.206;5.294;2024-02-21T04:56:34;101762.69;;;8.32;88.03
81372;BME280;70827;52.206;5.294;2024-02-21T04:59:02;101753.25;;;8.32;87.90
81372;BME280;70827;52.206;5.294;2024-02-21T05:01:28;101755.03;;;8.36;87.67
81372;BME280;70827;52.206;5.294;2024-02-21T05:03:53;101756.75;;;8.39;87.68
81372;BME280;70827;52.206;5.294;2024-02-21T05:06:19;101759.41;;;8.40;87.76
81372;BME280;70827;52.206;5.294;2024-02-21T05:08:44;101755.03;;;8.36;87.79
81372;BME280;70827;52.206;5.294;2024-02-21T05:11:10;101761.91;;;8.34;87.68
81372;BME280;70827;52.206;5.294;2024-02-21T05:13:36;101755.81;;;8.32;87.56
81372;BME280;70827;52.206;5.294;2024-02-21T05:16:05;101749.78;;;8.30;87.59
81372;BME280;70827;52.206;5.294;2024-02-21T05:18:31;101741.25;;;8.37;87.82
81372;BME280;70827;52.206;5.294;2024-02-21T05:20:56;101744.63;;;8.32;87.62
81372;BME280;70827;52.206;5.294;2024-02-21T05:23:22;101737.00;;;8.41;87.73
81372;BME280;70827;52.206;5.294;2024-02-21T05:25:47;101740.38;;;8.37;87.69
81372;BME280;70827;52.206;5.294;2024-02-21T05:28:13;101722.28;;;8.34;87.70
81372;BME280;70827;52.206;5.294;2024-02-21T05:30:38;101722.38;;;8.41;87.50
81372;BME280;70827;52.206;5.294;2024-02-21T05:33:07;101710.25;;;8.39;87.67
81372;BME280;70827;52.206;5.294;2024-02-21T05:35:33;101700.78;;;8.36;87.54
81372;BME280;70827;52.206;5.294;2024-02-21T05:37:59;101688.78;;;8.40;87.44
81372;BME280;70827;52.206;5.294;2024-02-21T05:40:25;101696.41;;;8.32;87.36
81372;BME280;70827;52.206;5.294;2024-02-21T05:42:50;101695.59;;;8.35;87.72
81372;BME280;70827;52.206;5.294;2024-02-21T05:45:16;101690.38;;;8.32;87.49
81372;BME280;70827;52.206;5.294;2024-02-21T05:47:42;101692.97;;;8.33;87.60
81372;BME280;70827;52.206;5.294;2024-02-21T05:50:10;101678.31;;;8.31;87.60
81372;BME280;70827;52.206;5.294;2024-02-21T05:52:36;101675.72;;;8.31;87.72
81372;BME280;70827;52.206;5.294;2024-02-21T05:55:01;101674.94;;;8.38;87.69
81372;BME280;70827;52.206;5.294;2024-02-21T05:57:27;101670.56;;;8.29;87.80
81372;BME280;70827;52.206;5.294;2024-02-21T05:59:52;101671.50;;;8.37;87.84
81372;BME280;70827;52.206;5.294;2024-02-21T06:02:18;101668.91;;;8.37;87.62
81372;BME280;70827;52.206;5.294;2024-02-21T06:04:44;101668.00;;;8.32;87.70
81372;BME280;70827;52.206;5.294;2024-02-21T06:07:12;101674.09;;;8.39;87.62
81372;BME280;70827;52.206;5.294;2024-02-21T06:09:37;101669.72;;;8.32;87.76
81372;BME280;70827;52.206;5.294;2024-02-21T06:12:04;101665.41;;;8.31;87.89
81372;BME280;70827;52.206;5.294;2024-02-21T06:14:29;101653.34;;;8.33;87.91
81372;BME280;70827;52.206;5.294;2024-02-21T06:16:55;101653.47;;;8.42;87.73
81372;BME280;70827;52.206;5.294;2024-02-21T06:19:20;101654.19;;;8.30;87.73
81372;BME280;70827;52.206;5.294;2024-02-21T06:21:46;101651.59;;;8.29;87.61
81372;BME280;70827;52.206;5.294;2024-02-21T06:24:14;101646.47;;;8.33;87.64
81372;BME280;70827;52.206;5.294;2024-02-21T06:26:40;101663.72;;;8.34;87.49
81372;BME280;70827;52.206;5.294;2024-02-21T06:29:06;101662.91;;;8.38;87.57
81372;BME280;70827;52.206;5.294;2024-02-21T06:31:31;101671.50;;;8.37;87.67
81372;BME280;70827;52.206;5.294;2024-02-21T06:33:57;101666.34;;;8.37;87.63
81372;BME280;70827;52.206;5.294;2024-02-21T06:36:22;101660.19;;;8.25;87.75
81372;BME280;70827;52.206;5.294;2024-02-21T06:38:48;101673.28;;;8.40;87.58
81372;BME280;70827;52.206;5.294;2024-02-21T06:41:20;101671.41;;;8.30;87.54
81372;BME280;70827;52.206;5.294;2024-02-21T06:43:45;101661.94;;;8.29;87.69
81372;BME280;70827;52.206;5.294;2024-02-21T06:46:11;101668.03;;;8.34;87.57
81372;BME280;70827;52.206;5.294;2024-02-21T06:48:36;101667.97;;;8.31;87.53
81372;BME280;70827;52.206;5.294;2024-02-21T06:51:02;101659.38;;;8.30;87.69
81372;BME280;70827;52.206;5.294;2024-02-21T06:53:28;101643.84;;;8.26;87.87
81372;BME280;70827;52.206;5.294;2024-02-21T06:55:53;101656.78;;;8.32;87.57
81372;BME280;70827;52.206;5.294;2024-02-21T06:58:22;101655.03;;;8.25;87.62
81372;BME280;70827;52.206;5.294;2024-02-21T07:00:47;101642.13;;;8.26;87.76
81372;BME280;70827;52.206;5.294;2024-02-21T07:03:13;101646.44;;;8.30;87.63
81372;BME280;70827;52.206;5.294;2024-02-21T07:05:39;101639.53;;;8.25;87.88
81372;BME280;70827;52.206;5.294;2024-02-21T07:08:04;101647.38;;;8.34;87.48
81372;BME280;70827;52.206;5.294;2024-02-21T07:10:30;101638.66;;;8.26;87.43
81372;BME280;70827;52.206;5.294;2024-02-21T07:12:56;101639.50;;;8.23;87.51
81372;BME280;70827;52.206;5.294;2024-02-21T07:15:24;101634.53;;;8.40;87.52
81372;BME280;70827;52.206;5.294;2024-02-21T07:17:49;101642.13;;;8.26;87.52
81372;BME280;70827;52.206;5.294;2024-02-21T07:20:15;101627.50;;;8.30;87.32
81372;BME280;70827;52.206;5.294;2024-02-21T07:22:41;101630.94;;;8.30;87.63
81372;BME280;70827;52.206;5.294;2024-02-21T07:25:07;101636.19;;;8.36;87.54
81372;BME280;70827;52.206;5.294;2024-02-21T07:27:33;101624.94;;;8.33;87.13
81372;BME280;70827;52.206;5.294;2024-02-21T07:29:58;101624.03;;;8.23;87.50
81372;BME280;70827;52.206;5.294;2024-02-21T07:32:27;101620.50;;;8.17;87.46
81372;BME280;70827;52.206;5.294;2024-02-21T07:34:52;101625.66;;;8.18;87.39
81372;BME280;70827;52.206;5.294;2024-02-21T07:37:18;101611.97;;;8.25;87.33
81372;BME280;70827;52.206;5.294;2024-02-21T07:39:43;101597.25;;;8.17;87.29
81372;BME280;70827;52.206;5.294;2024-02-21T07:42:09;101595.53;;;8.19;87.65
81372;BME280;70827;52.206;5.294;2024-02-21T07:44:34;101594.72;;;8.23;87.37
81372;BME280;70827;52.206;5.294;2024-02-21T07:47:00;101586.06;;;8.18;87.30
81372;BME280;70827;52.206;5.294;2024-02-21T07:49:28;101580.97;;;8.25;87.53
81372;BME280;70827;52.206;5.294;2024-02-21T07:51:54;101582.72;;;8.29;87.35
81372;BME280;70827;52.206;5.294;2024-02-21T07:54:19;101568.88;;;8.23;87.37
81372;BME280;70827;52.206;5.294;2024-02-21T07:56:45;101565.41;;;8.18;87.24
81372;BME280;70827;52.206;5.294;2024-02-21T07:59:11;101567.09;;;8.12;87.47
81372;BME280;70827;52.206;5.294;2024-02-21T08:01:36;101566.25;;;8.13;87.31
81372;BME280;70827;52.206;5.294;2024-02-21T08:04:02;101574.03;;;8.21;87.30
81372;BME280;70827;52.206;5.294;2024-02-21T08:06:30;101575.75;;;8.21;87.10
81372;BME280;70827;52.206;5.294;2024-02-21T08:08:56;101575.81;;;8.24;87.29
81372;BME280;70827;52.206;5.294;2024-02-21T08:11:21;101570.63;;;8.24;87.22
81372;BME280;70827;52.206;5.294;2024-02-21T08:13:47;101563.75;;;8.24;86.93
81372;BME280;70827;52.206;5.294;2024-02-21T08:16:13;101561.13;;;8.23;87.07
81372;BME280;70827;52.206;5.294;2024-02-21T08:18:38;101558.69;;;8.35;87.02
81372;BME280;70827;52.206;5.294;2024-02-21T08:21:04;101556.03;;;8.27;87.04
81372;BME280;70827;52.206;5.294;2024-02-21T08:23:32;101543.91;;;8.19;86.71
81372;BME280;70827;52.206;5.294;2024-02-21T08:25:58;101557.66;;;8.14;87.04
81372;BME280;70827;52.206;5.294;2024-02-21T08:28:23;101552.56;;;8.27;86.69
81372;BME280;70827;52.206;5.294;2024-02-21T08:30:49;101539.69;;;8.31;86.94
81372;BME280;70827;52.206;5.294;2024-02-21T08:33:14;101533.66;;;8.31;86.76
81372;BME280;70827;52.206;5.294;2024-02-21T08:35:40;101542.34;;;8.39;86.76
81372;BME280;70827;52.206;5.294;2024-02-21T08:38:06;101532.72;;;8.23;86.83
81372;BME280;70827;52.206;5.294;2024-02-21T08:40:34;101516.41;;;8.24;86.51
81372;BME280;70827;52.206;5.294;2024-02-21T08:42:59;101531.03;;;8.23;86.62
81372;BME280;70827;52.206;5.294;2024-02-21T08:45:25;101519.94;;;8.36;86.70
81372;BME280;70827;52.206;5.294;2024-02-21T08:47:51;101507.81;;;8.26;86.52
81372;BME280;70827;52.206;5.294;2024-02-21T08:50:16;101500.13;;;8.37;86.44
81372;BME280;70827;52.206;5.294;2024-02-21T08:52:42;101504.31;;;8.21;86.68
81372;BME280;70827;52.206;5.294;2024-02-21T08:55:08;101504.44;;;8.35;86.34
81372;BME280;70827;52.206;5.294;2024-02-21T08:57:36;101512.19;;;8.35;86.16
81372;BME280;70827;52.206;5.294;2024-02-21T09:00:04;101497.50;;;8.32;86.51
81372;BME280;70827;52.206;5.294;2024-02-21T09:02:30;101504.41;;;8.33;86.31
81372;BME280;70827;52.206;5.294;2024-02-21T09:04:55;101511.31;;;8.34;86.37
81372;BME280;70827;52.206;5.294;2024-02-21T09:07:21;101507.03;;;8.38;85.95
81372;BME280;70827;52.206;5.294;2024-02-21T09:09:46;101504.50;;;8.44;86.04
81372;BME280;70827;52.206;5.294;2024-02-21T09:12:12;101485.56;;;8.47;85.58
81372;BME280;70827;52.206;5.294;2024-02-21T09:14:40;101488.97;;;8.41;85.55
81372;BME280;70827;52.206;5.294;2024-02-21T09:17:06;101489.88;;;8.46;85.69
81372;BME280;70827;52.206;5.294;2024-02-21T09:19:33;101476.09;;;8.46;85.61
81372;BME280;70827;52.206;5.294;2024-02-21T09:21:58;101471.78;;;8.43;85.29
81372;BME280;70827;52.206;5.294;2024-02-21T09:24:24;101482.09;;;8.40;85.22
81372;BME280;70827;52.206;5.294;2024-02-21T09:26:49;101464.88;;;8.47;85.09
81372;BME280;70827;52.206;5.294;2024-02-21T09:29:15;101461.38;;;8.37;84.78
81372;BME280;70827;52.206;5.294;2024-02-21T09:31:43;101453.75;;;8.57;84.29
81372;BME280;70827;52.206;5.294;2024-02-21T09:34:09;101447.63;;;8.39;84.25
81372;BME280;70827;52.206;5.294;2024-02-21T09:36:34;101445.97;;;8.55;84.19
81372;BME280;70827;52.206;5.294;2024-02-21T09:39:00;101447.66;;;8.44;84.06
81372;BME280;70827;52.206;5.294;2024-02-21T09:41:26;101438.19;;;8.52;84.08
81372;BME280;70827;52.206;5.294;2024-02-21T09:43:52;101416.59;;;8.39;83.79
81372;BME280;70827;52.206;5.294;2024-02-21T09:46:18;101423.59;;;8.57;83.70
81372;BME280;70827;52.206;5.294;2024-02-21T09:48:55;101427.00;;;8.53;83.38
81372;BME280;70827;52.206;5.294;2024-02-21T09:51:24;101408.97;;;8.68;83.19
81372;BME280;70827;52.206;5.294;2024-02-21T09:53:50;101403.75;;;8.55;83.01
81372;BME280;70827;52.206;5.294;2024-02-21T09:56:16;101397.75;;;8.59;82.83
81372;BME280;70827;52.206;5.294;2024-02-21T09:58:42;101392.59;;;8.62;82.45
81372;BME280;70827;52.206;5.294;2024-02-21T10:01:08;101385.72;;;8.70;82.08
81372;BME280;70827;52.206;5.294;2024-02-21T10:03:34;101373.66;;;8.67;82.03
81372;BME280;70827;52.206;5.294;2024-02-21T10:06:02;101365.03;;;8.70;81.83
81372;BME280;70827;52.206;5.294;2024-02-21T10:08:28;101366.75;;;8.68;81.61
81372;BME280;70827;52.206;5.294;2024-02-21T10:10:54;101371.97;;;8.79;81.41
81372;BME280;70827;52.206;5.294;2024-02-21T10:13:24;101355.59;;;8.83;81.37
81372;BME280;70827;52.206;5.294;2024-02-21T10:16:00;101346.97;;;8.85;81.04
81372;BME280;70827;52.206;5.294;2024-02-21T10:18:26;101359.91;;;8.90;80.56
81372;BME280;70827;52.206;5.294;2024-02-21T10:21:02;101342.66;;;8.89;80.48
81372;BME280;70827;52.206;5.294;2024-02-21T10:23:28;101349.56;;;8.82;80.47
81372;BME280;70827;52.206;5.294;2024-02-21T10:25:54;101322.84;;;8.88;80.24
81372;BME280;70827;52.206;5.294;2024-02-21T10:28:19;101325.47;;;8.91;80.11
81372;BME280;70827;52.206;5.294;2024-02-21T10:30:50;101319.44;;;9.10;79.65
81372;BME280;70827;52.206;5.294;2024-02-21T10:33:15;101313.38;;;9.02;79.11
81372;BME280;70827;52.206;5.294;2024-02-21T10:35:41;101315.13;;;9.09;79.01
81372;BME280;70827;52.206;5.294;2024-02-21T10:38:09;101313.38;;;9.10;78.76
81372;BME280;70827;52.206;5.294;2024-02-21T10:40:35;101303.03;;;9.20;78.52
81372;BME280;70827;52.206;5.294;2024-02-21T10:43:01;101282.31;;;9.20;78.67
81372;BME280;70827;52.206;5.294;2024-02-21T10:45:30;101294.41;;;9.18;78.53
81372;BME280;70827;52.206;5.294;2024-02-21T10:47:56;101287.50;;;9.20;78.61
81372;BME280;70827;52.206;5.294;2024-02-21T10:50:25;101273.69;;;9.37;78.38
81372;BME280;70827;52.206;5.294;2024-02-21T10:53:01;101265.09;;;9.28;78.21
81372;BME280;70827;52.206;5.294;2024-02-21T10:55:37;101253.88;;;9.31;78.47
81372;BME280;70827;52.206;5.294;2024-02-21T10:58:03;101246.13;;;9.19;78.52
81372;BME280;70827;52.206;5.294;2024-02-21T11:00:29;101203.06;;;9.09;78.65
81372;BME280;70827;52.206;5.294;2024-02-21T11:02:56;101196.97;;;9.22;78.48
81372;BME280;70827;52.206;5.294;2024-02-21T11:05:21;101190.91;;;9.32;78.58
81372;BME280;70827;52.206;5.294;2024-02-21T11:07:48;101220.25;;;9.28;78.39
81372;BME280;70827;52.206;5.294;2024-02-21T11:10:23;101246.13;;;9.20;78.61
81372;BME280;70827;52.206;5.294;2024-02-21T11:12:52;101260.78;;;9.27;78.99
81372;BME280;70827;52.206;5.294;2024-02-21T11:15:18;101271.13;;;9.24;79.25
81372;BME280;70827;52.206;5.294;2024-02-21T11:17:54;101265.09;;;9.18;79.39
81372;BME280;70827;52.206;5.294;2024-02-21T11:20:21;101258.19;;;9.17;79.52
81372;BME280;70827;52.206;5.294;2024-02-21T11:22:57;101255.63;;;9.15;79.38
81372;BME280;70827;52.206;5.294;2024-02-21T11:25:22;101237.53;;;9.01;79.32
81372;BME280;70827;52.206;5.294;2024-02-21T11:27:48;101251.28;;;9.22;79.36
81372;BME280;70827;52.206;5.294;2024-02-21T11:30:16;101258.22;;;9.09;79.09
81372;BME280;70827;52.206;5.294;2024-02-21T11:32:42;101236.66;;;8.99;79.54
81372;BME280;70827;52.206;5.294;2024-02-21T11:35:08;101222.88;;;9.08;79.52
81372;BME280;70827;52.206;5.294;2024-02-21T11:37:44;101226.34;;;9.07;80.01
81372;BME280;70827;52.206;5.294;2024-02-21T11:40:10;101207.34;;;9.13;80.26
81372;BME280;70827;52.206;5.294;2024-02-21T11:42:36;101199.56;;;9.07;80.13
81372;BME280;70827;52.206;5.294;2024-02-21T11:45:01;101187.53;;;8.99;80.49
81372;BME280;70827;52.206;5.294;2024-02-21T11:47:30;101196.16;;;8.89;80.78
81372;BME280;70827;52.206;5.294;2024-02-21T11:49:56;101179.81;;;8.92;80.84
81372;BME280;70827;52.206;5.294;2024-02-21T11:52:22;101191.88;;;8.91;80.60
81372;BME280;70827;52.206;5.294;2024-02-21T11:54:48;101184.97;;;8.98;80.65
81372;BME280;70827;52.206;5.294;2024-02-21T11:57:14;101143.56;;;9.12;80.18
81372;BME280;70827;52.206;5.294;2024-02-21T11:59:40;101134.94;;;9.07;80.34
81372;BME280;70827;52.206;5.294;2024-02-21T12:02:06;101125.41;;;9.25;79.99
81372;BME280;70827;52.206;5.294;2024-02-21T12:04:34;101114.19;;;9.26;79.72
81372;BME280;70827;52.206;5.294;2024-02-21T12:07:01;101115.88;;;9.35;79.49
81372;BME280;70827;52.206;5.294;2024-02-21T12:09:26;101080.53;;;9.31;79.42
81372;BME280;70827;52.206;5.294;2024-02-21T12:11:59;101075.28;;;9.48;79.30
81372;BME280;70827;52.206;5.294;2024-02-21T12:14:25;101072.72;;;9.37;78.84
81372;BME280;70827;52.206;5.294;2024-02-21T12:16:50;101050.97;;;9.69;78.86
81372;BME280;70827;52.206;5.294;2024-02-21T12:19:16;101055.38;;;9.56;78.15
81372;BME280;70827;52.206;5.294;2024-02-21T12:21:44;101059.66;;;9.64;78.29
81372;BME280;70827;52.206;5.294;2024-02-21T12:24:14;101048.56;;;9.43;78.17
81372;BME280;70827;52.206;5.294;2024-02-21T12:26:40;101064.09;;;9.43;78.25
81372;BME280;70827;52.206;5.294;2024-02-21T12:29:05;101040.81;;;9.44;78.64
81372;BME280;70827;52.206;5.294;2024-02-21T12:31:31;101036.50;;;9.40;78.44
81372;BME280;70827;52.206;5.294;2024-02-21T12:33:57;101010.72;;;9.26;78.14
81372;BME280;70827;52.206;5.294;2024-02-21T12:36:22;101013.22;;;9.37;78.12
81372;BME280;70827;52.206;5.294;2024-02-21T12:38:50;101019.25;;;9.44;78.39
81372;BME280;70827;52.206;5.294;2024-02-21T12:41:16;101001.84;;;9.62;78.17
81372;BME280;70827;52.206;5.294;2024-02-21T12:43:42;101031.28;;;9.49;77.76
81372;BME280;70827;52.206;5.294;2024-02-21T12:46:07;100980.47;;;9.41;77.68
81372;BME280;70827;52.206;5.294;2024-02-21T12:48:33;100977.72;;;9.56;77.42
81372;BME280;70827;52.206;5.294;2024-02-21T12:50:59;100977.66;;;9.67;77.48
81372;BME280;70827;52.206;5.294;2024-02-21T12:53:25;100957.00;;;9.60;77.13
81372;BME280;70827;52.206;5.294;2024-02-21T12:55:53;100953.63;;;9.52;77.09